createdAt,value
2023-01-05T00:00:51.842Z,99301.50
2023-01-05T00:03:18.391Z,99296.34
2023-01-05T00:05:44.922Z,99294.56
2023-01-05T00:08:11.486Z,99290.22
2023-01-05T00:10:56.844Z,99293.84
2023-01-05T00:13:42.115Z,99290.34
2023-01-05T00:16:31.973Z,99272.84
2023-01-05T00:19:16.840Z,99262.38
2023-01-05T00:22:02.904Z,99268.59
2023-01-05T00:24:30.747Z,99263.38
2023-01-05T00:26:57.439Z,99266.88
2023-01-05T00:29:23.934Z,99271.22
2023-01-05T00:31:50.565Z,99274.59
2023-01-05T00:34:17.139Z,99264.03
2023-01-05T00:36:43.911Z,99261.44
2023-01-05T00:39:10.378Z,99265.94
2023-01-05T00:41:36.936Z,99257.09
2023-01-05T00:44:03.478Z,99249.19
2023-01-05T00:46:31.062Z,99263.91
2023-01-05T00:48:57.613Z,99245.41
2023-01-05T00:51:24.185Z,99247.97
2023-01-05T00:53:50.688Z,99253.28
2023-01-05T00:56:18.773Z,99254.16
2023-01-05T00:58:45.343Z,99252.22
2023-01-05T01:01:12.531Z,99246.09
2023-01-05T01:03:39.346Z,99242.72
2023-01-05T01:06:06.210Z,99246.16
2023-01-05T01:08:32.906Z,99245.22
2023-01-05T01:11:05.118Z,99238.06
2023-01-05T01:13:31.735Z,99244.94
2023-01-05T01:15:58.271Z,99236.94
2023-01-05T01:18:24.819Z,99241.09
2023-01-05T01:20:51.367Z,99242.69
2023-01-05T01:23:17.894Z,99237.38
2023-01-05T01:25:44.449Z,99247.84
2023-01-05T01:28:11.338Z,99245.22
2023-01-05T01:30:39.637Z,99223.28
2023-01-05T01:33:06.198Z,99227.59
2023-01-05T01:35:32.753Z,99240.81
2023-01-05T01:37:59.448Z,99234.38
2023-01-05T01:40:25.956Z,99229.25
2023-01-05T01:42:52.433Z,99217.91
2023-01-05T01:45:23.339Z,99233.66
2023-01-05T01:47:57.150Z,99227.44
2023-01-05T01:50:34.833Z,99230.19
2023-01-05T01:53:14.750Z,99229.34
2023-01-05T01:55:41.891Z,99232.00
2023-01-05T01:58:13.415Z,99227.63
2023-01-05T02:00:41.677Z,99234.66
2023-01-05T02:03:09.149Z,99234.72
2023-01-05T02:05:38.199Z,99214.78
2023-01-05T02:08:14.354Z,99223.97
2023-01-05T02:10:59.483Z,99223.38
2023-01-05T02:13:44.244Z,99229.66
2023-01-05T02:16:32.126Z,99214.97
2023-01-05T02:19:27.807Z,99222.22
2023-01-05T02:22:23.161Z,99216.22
2023-01-05T02:25:15.786Z,99214.53
2023-01-05T02:28:11.858Z,99207.53
2023-01-05T02:31:10.590Z,99211.88
2023-01-05T02:34:15.007Z,99199.66
2023-01-05T02:37:02.991Z,99192.56
2023-01-05T02:39:37.700Z,99188.97
2023-01-05T02:42:11.288Z,99192.47
2023-01-05T02:44:37.771Z,99202.88
2023-01-05T02:47:29.776Z,99192.31
2023-01-05T02:50:03.191Z,99186.16
2023-01-05T02:52:37.979Z,99203.81
2023-01-05T02:55:11.526Z,99193.41
2023-01-05T02:57:56.560Z,99205.72
2023-01-05T03:00:28.813Z,99208.44
2023-01-05T03:03:06.601Z,99226.84
2023-01-05T03:05:39.287Z,99225.13
2023-01-05T03:08:10.680Z,99226.97
2023-01-05T03:11:16.415Z,99243.78
2023-01-05T03:13:46.575Z,99233.47
2023-01-05T03:16:20.459Z,99229.28
2023-01-05T03:19:09.970Z,99241.63
2023-01-05T03:21:55.616Z,99232.09
2023-01-05T03:24:40.785Z,99228.66
2023-01-05T03:27:26.446Z,99219.13
2023-01-05T03:30:13.979Z,99222.69
2023-01-05T03:33:10.605Z,99220.13
2023-01-05T03:35:43.155Z,99211.41
2023-01-05T03:38:26.913Z,99216.69
2023-01-05T03:41:03.006Z,99214.94
2023-01-05T03:43:31.367Z,99220.19
2023-01-05T03:45:58.260Z,99228.97
2023-01-05T03:48:27.243Z,99236.00
2023-01-05T03:50:54.183Z,99264.00
2023-01-05T03:53:21.857Z,99259.66
2023-01-05T03:55:48.408Z,99232.72
2023-01-05T03:58:16.920Z,99225.84
2023-01-05T04:00:43.428Z,99240.75
2023-01-05T04:03:10.691Z,99213.75
2023-01-05T04:05:37.497Z,99224.25
2023-01-05T04:08:04.372Z,99233.00
2023-01-05T04:10:30.976Z,99238.25
2023-01-05T04:12:57.615Z,99240.88
2023-01-05T04:15:24.359Z,99242.66
2023-01-05T04:17:50.948Z,99230.44
2023-01-05T04:20:17.572Z,99231.31
2023-01-05T04:22:44.101Z,99233.06
2023-01-05T04:25:10.774Z,99238.28
2023-01-05T04:27:37.458Z,99230.44
2023-01-05T04:30:04.769Z,99227.81
2023-01-05T04:32:31.256Z,99239.13
2023-01-05T04:34:57.799Z,99215.53
2023-01-05T04:37:24.349Z,99237.34
2023-01-05T04:39:50.870Z,99221.63
2023-01-05T04:42:17.552Z,99228.59
2023-01-05T04:44:44.085Z,99218.94
2023-01-05T04:47:10.856Z,99224.13
2023-01-05T04:49:37.359Z,99219.75
2023-01-05T04:52:03.980Z,99228.47
2023-01-05T04:54:30.936Z,99217.06
2023-01-05T04:56:57.418Z,99213.53
2023-01-05T04:59:23.975Z,99215.25
2023-01-05T05:01:50.597Z,99229.25
2023-01-05T05:04:17.277Z,99224.88
2023-01-05T05:06:43.787Z,99237.06
2023-01-05T05:09:10.320Z,99235.34
2023-01-05T05:11:36.909Z,99237.13
2023-01-05T05:14:04.598Z,99233.63
2023-01-05T05:16:31.204Z,99233.69
2023-01-05T05:18:57.803Z,99238.94
2023-01-05T05:21:24.652Z,99220.56
2023-01-05T05:23:51.177Z,99228.44
2023-01-05T05:26:17.806Z,99218.84
2023-01-05T05:28:44.351Z,99224.13
2023-01-05T05:31:12.789Z,99221.56
2023-01-05T05:33:39.409Z,99238.13
2023-01-05T05:36:06.489Z,99239.03
2023-01-05T05:38:34.277Z,99240.75
2023-01-05T05:41:00.971Z,99247.72
2023-01-05T05:43:27.471Z,99237.25
2023-01-05T05:45:54.036Z,99247.72
2023-01-05T05:48:20.630Z,99247.75
2023-01-05T05:50:47.199Z,99241.63
2023-01-05T05:53:13.720Z,99242.53
2023-01-05T05:55:40.436Z,99249.50
2023-01-05T05:58:07.199Z,99245.16
2023-01-05T06:00:34.017Z,99250.34
2023-01-05T06:03:00.620Z,99258.22
2023-01-05T06:05:27.294Z,99248.63
2023-01-05T06:07:53.890Z,99257.34
2023-01-05T06:10:20.460Z,99250.34
2023-01-05T06:12:47.154Z,99259.94
2023-01-05T06:15:14.117Z,99258.19
2023-01-05T06:17:40.745Z,99259.09
2023-01-05T06:20:09.543Z,99265.19
2023-01-05T06:22:36.117Z,99259.97
2023-01-05T06:25:02.671Z,99260.84
2023-01-05T06:27:29.216Z,99259.09
2023-01-05T06:29:55.954Z,99260.84
2023-01-05T06:32:22.467Z,99253.88
2023-01-05T06:34:51.104Z,99263.50
2023-01-05T06:37:17.640Z,99261.72
2023-01-05T06:39:44.260Z,99263.50
2023-01-05T06:42:10.797Z,99266.13
2023-01-05T06:44:37.312Z,99266.97
2023-01-05T06:47:03.891Z,99258.22
2023-01-05T06:49:30.406Z,99266.06
2023-01-05T06:51:56.965Z,99267.78
2023-01-05T06:54:23.492Z,99266.91
2023-01-05T06:56:50.206Z,99266.00
2023-01-05T06:59:16.842Z,99271.25
2023-01-05T07:01:43.492Z,99267.72
2023-01-05T07:04:10.162Z,99279.09
2023-01-05T07:06:36.801Z,99275.59
2023-01-05T07:09:03.973Z,99273.84
2023-01-05T07:11:30.589Z,99270.34
2023-01-05T07:13:58.514Z,99272.97
2023-01-05T07:16:25.218Z,99270.31
2023-01-05T07:18:52.030Z,99279.91
2023-01-05T07:21:18.558Z,99281.66
2023-01-05T07:23:45.216Z,99286.84
2023-01-05T07:26:11.939Z,99293.88
2023-01-05T07:28:38.739Z,99289.44
2023-01-05T07:31:07.613Z,99291.22
2023-01-05T07:33:40.343Z,99286.81
2023-01-05T07:36:07.546Z,99294.66
2023-01-05T07:38:34.489Z,99293.78
2023-01-05T07:41:01.963Z,99290.25
2023-01-05T07:43:28.890Z,99290.22
2023-01-05T07:48:31.327Z,99303.28
2023-01-05T07:51:05.104Z,99296.22
2023-01-05T07:53:41.387Z,99295.25
2023-01-05T07:56:12.140Z,99303.03
2023-01-05T07:58:38.958Z,99311.69
2023-01-05T08:01:07.979Z,99305.56
2023-01-05T08:03:35.036Z,99292.41
2023-01-05T08:06:10.231Z,99312.53
2023-01-05T08:08:44.170Z,99313.41
2023-01-05T08:11:15.535Z,99317.78
2023-01-05T08:14:03.639Z,99308.19
2023-01-05T08:16:34.129Z,99309.06
2023-01-05T08:19:01.165Z,99305.53
2023-01-05T08:21:27.764Z,99312.50
2023-01-05T08:23:54.506Z,99320.38
2023-01-05T08:26:23.709Z,99323.78
2023-01-05T08:28:51.445Z,99322.91
2023-01-05T08:31:26.788Z,99320.25
2023-01-05T08:33:58.443Z,99331.66
2023-01-05T08:36:24.937Z,99326.31
2023-01-05T08:38:52.562Z,99320.06
2023-01-05T08:41:21.926Z,99334.88
2023-01-05T08:43:53.522Z,99329.50
2023-01-05T08:46:22.278Z,99305.78
2023-01-05T08:48:53.595Z,99334.75
2023-01-05T08:51:20.701Z,99336.50
2023-01-05T08:53:47.916Z,99328.63
2023-01-05T08:56:14.557Z,99346.22
2023-01-05T08:58:42.218Z,99342.72
2023-01-05T09:01:10.785Z,99340.09
2023-01-05T09:03:37.792Z,99333.06
2023-01-05T09:06:05.942Z,99350.59
2023-01-05T09:08:34.232Z,99347.94
2023-01-05T09:11:12.467Z,99347.91
2023-01-05T09:13:40.047Z,99354.06
2023-01-05T09:16:18.691Z,99344.47
2023-01-05T09:18:51.930Z,99347.03
2023-01-05T09:21:19.286Z,99347.94
2023-01-05T09:23:46.142Z,99351.50
2023-01-05T09:26:16.070Z,99361.22
2023-01-05T09:28:44.189Z,99361.25
2023-01-05T09:31:18.680Z,99354.41
2023-01-05T09:33:45.834Z,99348.28
2023-01-05T09:36:14.128Z,99374.63
2023-01-05T09:38:46.869Z,99372.06
2023-01-05T09:41:30.920Z,99369.53
2023-01-05T09:44:00.871Z,99360.81
2023-01-05T09:46:33.531Z,99382.75
2023-01-05T09:49:03.261Z,99386.31
2023-01-05T09:51:30.512Z,99385.44
2023-01-05T09:53:57.776Z,99384.56
2023-01-05T09:57:07.215Z,99373.19
2023-01-05T09:59:29.391Z,99379.34
2023-01-05T10:02:00.287Z,99381.03
2023-01-05T10:04:31.027Z,99367.06
2023-01-05T10:07:02.563Z,99367.88
2023-01-05T10:09:33.412Z,99366.97
2023-01-05T10:12:27.778Z,99366.09
2023-01-05T10:15:13.055Z,99367.00
2023-01-05T10:17:42.193Z,99353.03
2023-01-05T10:20:17.550Z,99357.41
2023-01-05T10:23:18.149Z,99347.81
2023-01-05T10:26:03.390Z,99343.47
2023-01-05T10:28:42.073Z,99348.75
2023-01-05T10:31:24.198Z,99348.72
2023-01-05T10:34:07.192Z,99353.97
2023-01-05T10:37:12.777Z,99375.03
2023-01-05T10:40:04.134Z,99420.72
2023-01-05T10:42:58.690Z,99411.22
2023-01-05T10:45:29.221Z,99415.56
2023-01-05T10:47:56.253Z,99426.88
2023-01-05T10:50:42.413Z,99388.44
2023-01-05T10:53:12.873Z,99415.41
2023-01-05T10:56:15.862Z,99406.72
2023-01-05T10:58:46.939Z,99418.06
2023-01-05T11:01:25.370Z,99423.28
2023-01-05T11:06:43.183Z,99411.06
2023-01-05T11:09:16.297Z,99413.69
2023-01-05T11:11:58.307Z,99407.59
2023-01-05T11:14:27.210Z,99397.09
2023-01-05T11:17:00.945Z,99394.53
2023-01-05T11:19:34.567Z,99387.53
2023-01-05T11:22:02.364Z,99392.75
2023-01-05T11:24:34.407Z,99397.09
2023-01-05T11:27:03.451Z,99405.84
2023-01-05T11:29:30.790Z,99412.88
2023-01-05T11:32:01.274Z,99418.13
2023-01-05T11:34:30.627Z,99408.47
2023-01-05T11:37:05.775Z,99397.16
2023-01-05T11:39:46.451Z,99411.13
2023-01-05T11:42:13.279Z,99411.16
2023-01-05T11:44:43.684Z,99404.19
2023-01-05T11:47:20.085Z,99408.59
2023-01-05T11:49:46.677Z,99405.09
2023-01-05T11:52:43.343Z,99416.47
2023-01-05T11:55:38.149Z,99409.47
2023-01-05T11:58:30.818Z,99412.97
2023-01-05T12:01:25.590Z,99405.06
2023-01-05T12:04:04.135Z,99410.03
2023-01-05T12:06:56.156Z,99403.69
2023-01-05T12:09:29.829Z,99396.78
2023-01-05T12:12:30.549Z,99407.47
2023-01-05T12:15:20.191Z,99413.69
2023-01-05T12:17:58.501Z,99415.47
2023-01-05T12:20:37.341Z,99418.09
2023-01-05T12:23:16.896Z,99411.16
2023-01-05T12:26:18.650Z,99438.25
2023-01-05T12:35:06.282Z,99434.72
2023-01-05T12:38:08.606Z,99432.06
2023-01-05T12:41:19.224Z,99434.63
2023-01-05T12:44:10.777Z,99436.34
2023-01-05T12:46:53.491Z,99448.56
2023-01-05T12:49:32.983Z,99428.41
2023-01-05T12:52:08.487Z,99404.81
2023-01-05T12:54:45.924Z,99430.22
2023-01-05T12:57:18.881Z,99423.22
2023-01-05T12:59:56.099Z,99436.34
2023-01-05T13:02:36.452Z,99438.97
2023-01-05T13:05:14.594Z,99430.25
2023-01-05T13:07:45.695Z,99422.38
2023-01-05T13:10:26.281Z,99426.75
2023-01-05T13:13:04.120Z,99442.50
2023-01-05T13:15:40.290Z,99443.31
2023-01-05T13:18:07.732Z,99424.03
2023-01-05T13:20:46.320Z,99422.16
2023-01-05T13:23:30.819Z,99424.75
2023-01-05T13:26:07.086Z,99429.94
2023-01-05T13:28:35.072Z,99427.25
2023-01-05T13:31:12.801Z,99424.56
2023-01-05T13:33:58.037Z,99419.28
2023-01-05T13:36:32.946Z,99406.06
2023-01-05T13:39:19.403Z,99427.94
2023-01-05T13:41:52.139Z,99420.03
2023-01-05T13:44:38.731Z,99447.22
2023-01-05T13:47:05.189Z,99448.09
2023-01-05T13:50:08.393Z,99448.09
2023-01-05T13:53:03.802Z,99450.78
2023-01-05T13:55:34.622Z,99449.94
2023-01-05T13:58:03.250Z,99456.06
2023-01-05T14:00:43.129Z,99464.00
2023-01-05T14:03:09.608Z,99465.78
2023-01-05T14:05:53.769Z,99473.69
2023-01-05T14:08:26.945Z,99492.09
2023-01-05T14:11:13.716Z,99485.19
2023-01-05T14:13:41.687Z,99500.06
2023-01-05T14:16:37.766Z,99489.59
2023-01-05T14:19:45.249Z,99505.38
2023-01-05T14:22:20.751Z,99514.16
2023-01-05T14:24:48.292Z,99522.94
2023-01-05T14:27:17.353Z,99525.56
2023-01-05T14:29:47.192Z,99508.06
2023-01-05T14:32:23.686Z,99533.44
2023-01-05T14:34:53.553Z,99541.34
2023-01-05T14:37:34.759Z,99549.22
2023-01-05T14:40:08.698Z,99549.22
2023-01-05T14:42:41.000Z,99541.34
2023-01-05T14:45:26.976Z,99552.75
2023-01-05T14:47:56.525Z,99552.75
2023-01-05T14:50:39.379Z,99558.88
2023-01-05T14:53:43.217Z,99539.63
2023-01-05T14:56:09.692Z,99584.25
2023-01-05T14:58:36.320Z,99564.09
2023-01-05T15:01:15.836Z,99586.88
2023-01-05T15:04:01.304Z,99601.75
2023-01-05T15:07:06.787Z,99601.78
2023-01-05T15:10:18.578Z,99591.25
2023-01-05T15:13:13.909Z,99605.28
2023-01-05T15:16:19.791Z,99611.41
2023-01-05T15:19:08.054Z,99625.38
2023-01-05T15:22:36.511Z,99635.91
2023-01-05T15:25:24.076Z,99638.53
2023-01-05T15:28:15.826Z,99648.13
2023-01-05T15:31:13.606Z,99651.63
2023-01-05T15:34:16.376Z,99668.25
2023-01-05T15:37:01.207Z,99658.59
2023-01-05T15:39:45.096Z,99676.97
2023-01-05T15:42:17.470Z,99679.63
2023-01-05T15:44:47.911Z,99663.00
2023-01-05T15:47:15.137Z,99683.09
2023-01-05T15:49:41.846Z,99687.50
2023-01-05T15:52:18.980Z,99690.09
2023-01-05T15:54:57.487Z,99694.47
2023-01-05T15:57:24.059Z,99691.84
2023-01-05T15:59:52.068Z,99697.09
2023-01-05T16:02:26.557Z,99701.44
2023-01-05T16:05:10.038Z,99697.97
2023-01-05T16:07:42.423Z,99716.31
2023-01-05T16:10:21.423Z,99719.81
2023-01-05T16:12:51.009Z,99716.31
2023-01-05T16:15:21.878Z,99725.06
2023-01-05T16:17:51.878Z,99730.28
2023-01-05T16:20:24.612Z,99739.03
2023-01-05T16:23:04.532Z,99745.16
2023-01-05T16:25:42.840Z,99746.91
2023-01-05T16:28:17.672Z,99758.28
2023-01-05T16:30:46.835Z,99757.38
2023-01-05T16:33:34.949Z,99762.63
2023-01-05T16:36:12.601Z,99762.63
2023-01-05T16:38:39.832Z,99762.63
2023-01-05T16:41:10.330Z,99777.47
2023-01-05T16:43:39.585Z,99769.59
2023-01-05T16:46:17.242Z,99776.56
2023-01-05T16:48:49.772Z,99794.94
2023-01-05T16:51:36.791Z,99777.44
2023-01-05T16:54:22.188Z,99788.75
2023-01-05T16:57:01.478Z,99786.09
2023-01-05T16:59:51.524Z,99802.72
2023-01-05T17:02:45.315Z,99821.94
2023-01-05T17:05:15.488Z,99816.69
2023-01-05T17:07:44.058Z,99813.22
2023-01-05T17:10:25.797Z,99794.84
2023-01-05T17:12:57.987Z,99818.44
2023-01-05T17:15:28.087Z,99838.50
2023-01-05T17:17:56.412Z,99828.91
2023-01-05T17:20:26.439Z,99828.03
2023-01-05T17:22:55.005Z,99842.03
2023-01-05T17:25:22.486Z,99831.56
2023-01-05T17:27:49.111Z,99843.78
2023-01-05T17:30:19.814Z,99842.91
2023-01-05T17:32:46.713Z,99842.91
2023-01-05T17:35:14.648Z,99847.25
2023-01-05T17:37:43.031Z,99854.25
2023-01-05T17:40:17.524Z,99837.66
2023-01-05T17:42:44.480Z,99860.38
2023-01-05T17:45:16.459Z,99869.97
2023-01-05T17:47:43.735Z,99883.09
2023-01-05T17:50:16.264Z,99880.47
2023-01-05T17:52:42.954Z,99884.84
2023-01-05T17:55:10.384Z,99884.81
2023-01-05T17:57:37.050Z,99890.03
2023-01-05T18:00:06.155Z,99897.03
2023-01-05T18:02:32.910Z,99915.34
2023-01-05T18:04:59.816Z,99915.31
2023-01-05T18:07:26.433Z,99931.94
2023-01-05T18:09:52.935Z,99927.53
2023-01-05T18:12:19.934Z,99911.81
2023-01-05T18:14:46.509Z,99937.16
2023-01-05T18:17:13.336Z,99938.94
2023-01-05T18:19:40.014Z,99938.94
2023-01-05T18:22:06.609Z,99945.06
2023-01-05T18:24:33.270Z,99939.78
2023-01-05T18:26:59.881Z,99959.91
2023-01-05T18:29:26.480Z,99977.34
2023-01-05T18:31:54.610Z,99980.81
2023-01-05T18:34:21.309Z,99987.81
2023-01-05T18:36:52.481Z,99990.34
2023-01-05T18:39:25.239Z,99998.13
2023-01-05T18:41:52.423Z,100002.41
2023-01-05T18:44:19.023Z,99993.56
2023-01-05T18:46:45.552Z,100006.56
2023-01-05T18:49:12.724Z,100006.38
2023-01-05T18:51:39.980Z,100009.69
2023-01-05T18:54:07.521Z,100013.88
2023-01-05T18:56:34.336Z,100021.66
2023-01-05T18:59:01.211Z,100012.03
2023-01-05T19:01:28.109Z,100031.22
2023-01-05T19:03:55.330Z,100018.09
2023-01-05T19:06:25.624Z,100031.22
2023-01-05T19:08:52.406Z,100012.00
2023-01-05T19:11:22.555Z,100047.69
2023-01-05T19:13:49.952Z,100050.16
2023-01-05T19:16:18.759Z,100037.81
2023-01-05T19:18:50.711Z,100035.09
2023-01-05T19:21:17.668Z,100061.16
2023-01-05T19:23:44.218Z,100071.50
2023-01-05T19:26:10.819Z,100072.31
2023-01-05T19:28:40.206Z,100073.13
2023-01-05T19:31:13.118Z,100070.44
2023-01-05T19:33:41.090Z,100093.03
2023-01-05T19:36:15.195Z,100094.72
2023-01-05T19:38:42.152Z,100085.06
2023-01-05T19:41:09.706Z,100109.41
2023-01-05T19:43:37.291Z,100113.56
2023-01-05T19:46:06.831Z,100108.22
2023-01-05T19:48:37.015Z,100115.06
2023-01-05T19:51:10.495Z,100123.63
2023-01-05T19:53:38.503Z,100117.41
2023-01-05T19:56:15.714Z,100128.72
2023-01-05T19:58:43.689Z,100129.53
2023-01-05T20:01:13.695Z,100140.88
2023-01-05T20:03:41.489Z,100154.75
2023-01-05T20:06:11.700Z,100148.63
2023-01-05T20:08:39.131Z,100144.34
2023-01-05T20:11:12.720Z,100151.34
2023-01-05T20:13:43.404Z,100149.59
2023-01-05T20:16:12.256Z,100156.53
2023-01-05T20:18:39.732Z,100167.03
2023-01-05T20:21:08.421Z,100169.66
2023-01-05T20:23:40.477Z,100167.03
2023-01-05T20:26:10.102Z,100179.28
2023-01-05T20:28:36.968Z,100175.78
2023-01-05T20:31:05.685Z,100179.25
2023-01-05T20:33:32.545Z,100192.31
2023-01-05T20:35:59.144Z,100194.03
2023-01-05T20:38:25.862Z,100199.28
2023-01-05T20:40:54.567Z,100203.63
2023-01-05T20:43:21.218Z,100202.72
2023-01-05T20:45:48.906Z,100210.53
2023-01-05T20:48:15.711Z,100211.41
2023-01-05T20:50:42.592Z,100206.19
2023-01-05T20:53:10.353Z,100218.34
2023-01-05T20:55:40.494Z,100227.00
2023-01-05T20:58:07.252Z,100227.00
2023-01-05T21:00:33.774Z,100231.28
2023-01-05T21:03:00.679Z,100247.81
2023-01-05T21:05:27.222Z,100239.94
2023-01-05T21:07:54.384Z,100259.03
2023-01-05T21:10:20.922Z,100266.88
2023-01-05T21:12:47.752Z,100262.56
2023-01-05T21:15:14.388Z,100283.47
2023-01-05T21:17:40.932Z,100275.50
2023-01-05T21:20:08.207Z,100281.59
2023-01-05T21:22:35.147Z,100293.75
2023-01-05T21:25:01.701Z,100297.22
2023-01-05T21:27:28.191Z,100300.66
2023-01-05T21:29:54.825Z,100303.13
2023-01-05T21:32:21.623Z,100297.03
2023-01-05T21:34:48.166Z,100305.72
2023-01-05T21:37:14.697Z,100310.09
2023-01-05T21:39:44.292Z,100320.44
2023-01-05T21:42:29.266Z,100310.78
2023-01-05T21:44:55.786Z,100317.63
2023-01-05T21:47:22.463Z,100327.16
2023-01-05T21:49:49.652Z,100321.78
2023-01-05T21:52:34.631Z,100319.94
2023-01-05T21:55:19.970Z,100338.94
2023-01-05T21:57:46.577Z,100349.19
2023-01-05T22:00:13.611Z,100342.06
2023-01-05T22:02:40.080Z,100338.41
2023-01-05T22:05:07.036Z,100339.22
2023-01-05T22:07:33.650Z,100340.03
2023-01-05T22:10:00.230Z,100343.44
2023-01-05T22:12:29.472Z,100346.75
2023-01-05T22:14:56.250Z,100348.25
2023-01-05T22:17:22.939Z,100355.78
2023-01-05T22:19:49.467Z,100356.41
2023-01-05T22:22:15.953Z,100360.56
2023-01-05T22:24:42.455Z,100366.50
2023-01-05T22:27:08.970Z,100358.56
2023-01-05T22:29:35.484Z,100370.75
2023-01-05T22:32:03.153Z,100382.94
2023-01-05T22:34:30.302Z,100376.81
2023-01-05T22:36:56.856Z,100382.09
2023-01-05T22:39:23.344Z,100375.06
2023-01-05T22:41:50.598Z,100392.56
2023-01-05T22:44:17.176Z,100388.19
2023-01-05T22:46:43.711Z,100386.44
2023-01-05T22:49:15.791Z,100398.63
2023-01-05T22:51:42.684Z,100396.06
2023-01-05T22:54:09.192Z,100399.53
2023-01-05T22:56:40.139Z,100410.00
2023-01-05T22:59:06.758Z,100414.47
2023-01-05T23:01:36.588Z,100413.63
2023-01-05T23:04:05.359Z,100417.78
2023-01-05T23:06:32.156Z,100420.97
2023-01-05T23:08:59.285Z,100415.56
2023-01-05T23:11:37.579Z,100422.31
2023-01-05T23:14:06.280Z,100432.69
2023-01-05T23:16:34.422Z,100436.94
2023-01-05T23:19:01.999Z,100436.94
2023-01-05T23:21:28.618Z,100438.81
2023-01-05T23:23:57.104Z,100444.13
2023-01-05T23:26:25.053Z,100439.88
2023-01-05T23:28:51.728Z,100440.84
2023-01-05T23:31:19.301Z,100442.59
2023-01-05T23:33:47.497Z,100444.34
2023-01-05T23:36:15.936Z,100449.66
2023-01-05T23:38:43.154Z,100444.44
2023-01-05T23:41:12.250Z,100454.03
2023-01-05T23:43:40.819Z,100461.88
2023-01-05T23:46:25.368Z,100457.53
2023-01-05T23:48:52.296Z,100458.53
2023-01-05T23:51:19.193Z,100466.31
2023-01-05T23:53:48.734Z,100454.97
2023-01-05T23:56:18.414Z,100469.75
2023-01-05T23:58:45.439Z,100467.97
